Westboro, Ohio
Current Conditions -  °F | °C
As of 6:54 AM on Friday 19 Dec 2014 (Local Time) from KILN Reporting Station
Overcast Overcast  
Wind Chill: 19°   Ceiling: 1600
Heat Index: 26°   Visibility: 9mi
Dew Point: 19°   Wind: 6mph
Humidity: 75%   Direction: 360°N
Pressure: 30.24"   Gusts: NA
Location:  39.2883°N, 83.8861°W
Report Text: KILN 191154Z AUTO 36005KT 9SM OVC016 M03/M07 A3024 RMK AO2 SLP272 T10331072 11028 21033 53011
Loading
Personal Weather Stations






























Interactive Weather Map New forecast layout! Learn more

10-Day Weather Forecast

Advertisements
Track Severe Weather on mobile